createdAt,value
2017-06-11T00:00:59.506Z,1037.44
2017-06-11T00:01:59.503Z,1037.46
2017-06-11T00:02:59.500Z,1037.45
2017-06-11T00:03:59.498Z,1037.46
2017-06-11T00:04:59.494Z,1037.45
2017-06-11T00:05:59.494Z,1037.41
2017-06-11T00:06:59.489Z,1037.38
2017-06-11T00:07:59.484Z,1037.39
2017-06-11T00:08:59.481Z,1037.35
2017-06-11T00:09:59.479Z,1037.32
2017-06-11T00:10:59.476Z,1037.33
2017-06-11T00:11:59.473Z,1037.3
2017-06-11T00:12:59.470Z,1037.32
2017-06-11T00:13:59.468Z,1037.27
2017-06-11T00:14:59.464Z,1037.31
2017-06-11T00:15:59.461Z,1037.31
2017-06-11T00:16:59.458Z,1037.27
2017-06-11T00:17:59.456Z,1037.27
2017-06-11T00:18:59.452Z,1037.29
2017-06-11T00:19:59.449Z,1037.25
2017-06-11T00:20:59.446Z,1037.26
2017-06-11T00:21:59.442Z,1037.2
2017-06-11T00:22:59.441Z,1037.18
2017-06-11T00:23:59.436Z,1037.21
2017-06-11T00:24:59.434Z,1037.21
2017-06-11T00:25:59.430Z,1037.19
2017-06-11T00:26:59.427Z,1037.17
2017-06-11T00:27:59.426Z,1037.21
2017-06-11T00:28:59.421Z,1037.21
2017-06-11T00:29:59.421Z,1037.23
2017-06-11T00:30:59.415Z,1037.27
2017-06-11T00:31:59.412Z,1037.27
2017-06-11T00:32:59.408Z,1037.27
2017-06-11T00:33:59.406Z,1037.31
2017-06-11T00:34:59.402Z,1037.32
2017-06-11T00:35:59.400Z,1037.35
2017-06-11T00:36:59.396Z,1037.35
2017-06-11T00:37:59.393Z,1037.39
2017-06-11T00:38:59.390Z,1037.39
2017-06-11T00:39:59.387Z,1037.44
2017-06-11T00:40:59.383Z,1037.43
2017-06-11T00:41:59.381Z,1037.45
2017-06-11T00:42:59.378Z,1037.45
2017-06-11T00:43:59.374Z,1037.46
2017-06-11T00:44:59.370Z,1037.47
2017-06-11T00:45:59.367Z,1037.44
2017-06-11T00:46:59.365Z,1037.43
2017-06-11T00:47:59.360Z,1037.47
2017-06-11T00:48:59.358Z,1037.5
2017-06-11T00:49:59.354Z,1037.51
2017-06-11T00:50:59.352Z,1037.54
2017-06-11T00:51:59.349Z,1037.5
2017-06-11T00:52:59.343Z,1037.53
2017-06-11T00:53:59.341Z,1037.54
2017-06-11T00:54:59.337Z,1037.59
2017-06-11T00:55:59.334Z,1037.6
2017-06-11T00:56:59.330Z,1037.57
2017-06-11T00:57:59.327Z,1037.6
2017-06-11T00:58:59.323Z,1037.59
2017-06-11T00:59:59.320Z,1037.65
2017-06-11T01:00:59.317Z,1037.65
2017-06-11T01:01:59.314Z,1037.68
2017-06-11T01:02:59.310Z,1037.63
2017-06-11T01:03:59.306Z,1037.69
2017-06-11T01:04:59.303Z,1037.71
2017-06-11T01:05:59.299Z,1037.74
2017-06-11T01:06:59.296Z,1037.73
2017-06-11T01:07:59.292Z,1037.77
2017-06-11T01:08:59.288Z,1037.76
2017-06-11T01:09:59.284Z,1037.8
2017-06-11T01:10:59.281Z,1037.79
2017-06-11T01:11:59.279Z,1037.78
2017-06-11T01:12:59.274Z,1037.84
2017-06-11T01:13:59.269Z,1037.78
2017-06-11T01:14:59.266Z,1037.81
2017-06-11T01:15:59.262Z,1037.8
2017-06-11T01:16:59.258Z,1037.84
2017-06-11T01:17:59.254Z,1037.88
2017-06-11T01:18:59.251Z,1037.85
2017-06-11T01:19:59.248Z,1037.87
2017-06-11T01:20:59.243Z,1037.83
2017-06-11T01:21:59.240Z,1037.85
2017-06-11T01:22:59.236Z,1037.84
2017-06-11T01:23:59.232Z,1037.84
2017-06-11T01:24:59.228Z,1037.86
2017-06-11T01:25:59.224Z,1037.82
2017-06-11T01:26:59.224Z,1037.84
2017-06-11T01:27:59.216Z,1037.81
2017-06-11T01:28:59.213Z,1037.82
2017-06-11T01:29:59.209Z,1037.86
2017-06-11T01:30:59.205Z,1037.79
2017-06-11T01:31:59.200Z,1037.77
2017-06-11T01:32:59.198Z,1037.74
2017-06-11T01:33:59.193Z,1037.74
2017-06-11T01:34:59.191Z,1037.72
2017-06-11T01:35:59.185Z,1037.72
2017-06-11T01:36:59.181Z,1037.68
2017-06-11T01:37:59.177Z,1037.64
2017-06-11T01:38:59.172Z,1037.65
2017-06-11T01:39:59.168Z,1037.63
2017-06-11T01:40:59.164Z,1037.58
2017-06-11T01:41:59.162Z,1037.6
2017-06-11T01:42:59.156Z,1037.58
2017-06-11T01:43:59.153Z,1037.53
2017-06-11T01:44:59.149Z,1037.52
2017-06-11T01:45:59.145Z,1037.48
2017-06-11T01:46:59.140Z,1037.43
2017-06-11T01:47:59.137Z,1037.39
2017-06-11T01:48:59.133Z,1037.33
2017-06-11T01:49:59.128Z,1037.32
2017-06-11T01:50:59.125Z,1037.32
2017-06-11T01:51:59.122Z,1037.31
2017-06-11T01:52:59.118Z,1037.32
2017-06-11T01:53:59.113Z,1037.28
2017-06-11T01:54:59.109Z,1037.32
2017-06-11T01:55:59.106Z,1037.29
2017-06-11T01:56:59.101Z,1037.28
2017-06-11T01:57:59.097Z,1037.3
2017-06-11T01:58:59.094Z,1037.32
2017-06-11T01:59:59.090Z,1037.31
2017-06-11T02:00:59.085Z,1037.35
2017-06-11T02:01:59.082Z,1037.35
2017-06-11T02:02:59.078Z,1037.33
2017-06-11T02:03:59.074Z,1037.34
2017-06-11T02:04:59.069Z,1037.31
2017-06-11T02:05:59.066Z,1037.32
2017-06-11T02:06:59.063Z,1037.31
2017-06-11T02:07:59.058Z,1037.29
2017-06-11T02:08:59.054Z,1037.31
2017-06-11T02:09:59.051Z,1037.3
2017-06-11T02:10:59.047Z,1037.32
2017-06-11T02:11:59.042Z,1037.29
2017-06-11T02:12:59.039Z,1037.3
2017-06-11T02:13:59.035Z,1037.32
2017-06-11T02:14:59.035Z,1037.32
2017-06-11T02:15:59.027Z,1037.35
2017-06-11T02:16:59.023Z,1037.34
2017-06-11T02:17:59.020Z,1037.3
2017-06-11T02:18:59.014Z,1037.37
2017-06-11T02:19:59.011Z,1037.41
2017-06-11T02:20:59.007Z,1037.4
2017-06-11T02:21:59.003Z,1037.44
2017-06-11T02:22:59.004Z,1037.48
2017-06-11T02:23:58.996Z,1037.5
2017-06-11T02:24:58.994Z,1037.51
2017-06-11T02:25:58.988Z,1037.52
2017-06-11T02:26:58.984Z,1037.49
2017-06-11T02:27:58.980Z,1037.53
2017-06-11T02:28:58.978Z,1037.58
2017-06-11T02:29:58.971Z,1037.58
2017-06-11T02:30:58.968Z,1037.65
2017-06-11T02:31:58.965Z,1037.65
2017-06-11T02:32:58.960Z,1037.7
2017-06-11T02:33:58.956Z,1037.71
2017-06-11T02:34:58.953Z,1037.76
2017-06-11T02:35:58.948Z,1037.73
2017-06-11T02:36:58.944Z,1037.73
2017-06-11T02:37:58.940Z,1037.79
2017-06-11T02:38:58.936Z,1037.74
2017-06-11T02:39:58.932Z,1037.76
2017-06-11T02:40:58.927Z,1037.8
2017-06-11T02:41:58.924Z,1037.76
2017-06-11T02:42:59.220Z,1037.77
2017-06-11T02:43:58.916Z,1037.77
2017-06-11T02:44:58.910Z,1037.8
2017-06-11T02:45:58.906Z,1037.8
2017-06-11T02:46:58.903Z,1037.78
2017-06-11T02:47:58.899Z,1037.79
2017-06-11T02:48:58.894Z,1037.79
2017-06-11T02:49:58.890Z,1037.79
2017-06-11T02:50:58.886Z,1037.79
2017-06-11T02:51:58.881Z,1037.79
2017-06-11T02:52:58.877Z,1037.82
2017-06-11T02:53:58.873Z,1037.8
2017-06-11T02:54:58.868Z,1037.78
2017-06-11T02:55:58.893Z,1037.77
2017-06-11T02:56:58.859Z,1037.8
2017-06-11T02:57:58.855Z,1037.78
2017-06-11T02:58:58.851Z,1037.75
2017-06-11T02:59:58.846Z,1037.73
2017-06-11T03:00:58.842Z,1037.72
2017-06-11T03:01:58.837Z,1037.67
2017-06-11T03:02:58.832Z,1037.69
2017-06-11T03:03:58.828Z,1037.62
2017-06-11T03:04:58.824Z,1037.61
2017-06-11T03:05:58.821Z,1037.59
2017-06-11T03:06:58.816Z,1037.52
2017-06-11T03:07:58.812Z,1037.54
2017-06-11T03:08:58.807Z,1037.51
2017-06-11T03:09:58.802Z,1037.49
2017-06-11T03:10:58.798Z,1037.43
2017-06-11T03:11:58.794Z,1037.4
2017-06-11T03:12:58.790Z,1037.35
2017-06-11T03:13:58.785Z,1037.32
2017-06-11T03:14:58.781Z,1037.27
2017-06-11T03:15:58.776Z,1037.26
2017-06-11T03:16:58.773Z,1037.25
2017-06-11T03:17:58.768Z,1037.19
2017-06-11T03:18:58.765Z,1037.16
2017-06-11T03:19:58.760Z,1037.1
2017-06-11T03:20:58.757Z,1037.09
2017-06-11T03:21:58.751Z,1037.07
2017-06-11T03:22:58.748Z,1037.03
2017-06-11T03:23:58.744Z,1037.01
2017-06-11T03:24:58.741Z,1037.01
2017-06-11T03:25:58.737Z,1037
2017-06-11T03:26:58.731Z,1036.99
2017-06-11T03:27:58.728Z,1036.97
2017-06-11T03:28:58.723Z,1036.99
2017-06-11T03:29:58.719Z,1037
2017-06-11T03:30:58.716Z,1036.95
2017-06-11T03:31:58.711Z,1036.94
2017-06-11T03:32:58.707Z,1036.91
2017-06-11T03:33:58.703Z,1036.9
2017-06-11T03:34:58.700Z,1036.85
2017-06-11T03:35:58.695Z,1036.83
2017-06-11T03:36:58.691Z,1036.78
2017-06-11T03:37:58.688Z,1036.77
2017-06-11T03:38:58.685Z,1036.76
2017-06-11T03:39:58.680Z,1036.71
2017-06-11T03:40:58.677Z,1036.68
2017-06-11T03:41:58.672Z,1036.73
2017-06-11T03:42:58.668Z,1036.68
2017-06-11T03:43:58.665Z,1036.65
2017-06-11T03:44:58.661Z,1036.68
2017-06-11T03:45:58.658Z,1036.72
2017-06-11T03:46:58.653Z,1036.65
2017-06-11T03:47:58.650Z,1036.7
2017-06-11T03:48:58.646Z,1036.72
2017-06-11T03:49:58.643Z,1036.73
2017-06-11T03:50:58.639Z,1036.74
2017-06-11T03:51:58.635Z,1036.71
2017-06-11T03:52:58.631Z,1036.77
2017-06-11T03:53:58.629Z,1036.73
2017-06-11T03:54:58.625Z,1036.73
2017-06-11T03:55:58.621Z,1036.72
2017-06-11T03:56:58.617Z,1036.75
2017-06-11T03:57:58.613Z,1036.8
2017-06-11T03:58:58.610Z,1036.83
2017-06-11T03:59:58.607Z,1036.87
2017-06-11T04:00:58.607Z,1036.9
2017-06-11T04:01:58.599Z,1036.89
2017-06-11T04:02:58.595Z,1036.86
2017-06-11T04:03:58.592Z,1036.91
2017-06-11T04:04:58.590Z,1036.9
2017-06-11T04:05:58.585Z,1036.88
2017-06-11T04:06:58.581Z,1036.89
2017-06-11T04:07:58.578Z,1036.94
2017-06-11T04:08:58.574Z,1036.92
2017-06-11T04:09:58.570Z,1036.94
2017-06-11T04:10:58.567Z,1036.96
2017-06-11T04:11:58.564Z,1037
2017-06-11T04:12:58.560Z,1036.99
2017-06-11T04:13:58.556Z,1036.97
2017-06-11T04:14:58.553Z,1036.96
2017-06-11T04:15:58.550Z,1037
2017-06-11T04:16:58.546Z,1036.98
2017-06-11T04:17:58.543Z,1036.98
2017-06-11T04:18:58.540Z,1036.97
2017-06-11T04:19:58.535Z,1036.94
2017-06-11T04:20:58.532Z,1036.93
2017-06-11T04:21:58.529Z,1036.96
2017-06-11T04:22:58.525Z,1036.99
2017-06-11T04:23:58.550Z,1037.02
2017-06-11T04:24:58.518Z,1036.99
2017-06-11T04:25:58.514Z,1037.02
2017-06-11T04:26:58.511Z,1036.98
2017-06-11T04:27:58.507Z,1036.97
2017-06-11T04:28:58.504Z,1036.97
2017-06-11T04:29:58.501Z,1036.9
2017-06-11T04:30:58.497Z,1036.9
2017-06-11T04:31:58.494Z,1036.79
2017-06-11T04:32:58.491Z,1036.7
2017-06-11T04:33:58.487Z,1036.61
2017-06-11T04:34:58.483Z,1036.52
2017-06-11T04:35:58.480Z,1036.46
2017-06-11T04:36:58.477Z,1036.4
2017-06-11T04:37:58.473Z,1036.26
2017-06-11T04:38:58.470Z,1036.27
2017-06-11T04:39:58.467Z,1036.21
2017-06-11T04:40:58.464Z,1036.13
2017-06-11T04:41:58.460Z,1036.14
2017-06-11T04:42:58.457Z,1035.97
2017-06-11T04:43:58.454Z,1035.88
2017-06-11T04:44:58.451Z,1035.71
2017-06-11T04:45:58.448Z,1035.16
2017-06-11T04:46:58.446Z,1034.93
2017-06-11T04:47:58.443Z,1034.44
2017-06-11T04:48:58.440Z,1033.86
2017-06-11T04:49:58.439Z,1033.46
2017-06-11T04:50:58.436Z,1033.06
2017-06-11T04:51:58.461Z,1032.71
2017-06-11T04:52:58.432Z,1032.39
2017-06-11T04:53:58.431Z,1032.11
2017-06-11T04:54:58.430Z,1031.9
2017-06-11T04:55:58.430Z,1031.64
2017-06-11T04:56:58.431Z,1031.41
2017-06-11T04:57:58.432Z,1031.13
2017-06-11T04:58:58.433Z,1031.07
2017-06-11T04:59:58.434Z,1030.85
2017-06-11T05:00:58.436Z,1030.66
2017-06-11T05:01:58.440Z,1030.48
2017-06-11T05:02:58.442Z,1030.38
2017-06-11T05:03:58.445Z,1030.31
2017-06-11T05:04:58.450Z,1030.19
2017-06-11T05:05:58.454Z,1030.09
2017-06-11T05:06:58.458Z,1030.02
2017-06-11T05:07:58.465Z,1029.92
2017-06-11T05:08:58.472Z,1029.86
2017-06-11T05:09:58.478Z,1029.77
2017-06-11T05:10:58.484Z,1029.74
2017-06-11T05:11:58.491Z,1029.63
2017-06-11T05:12:58.499Z,1029.56
2017-06-11T05:13:58.507Z,1029.52
2017-06-11T05:14:58.514Z,1029.44
2017-06-11T05:15:58.523Z,1029.32
2017-06-11T05:16:58.533Z,1029.22
2017-06-11T05:17:58.540Z,1029.07
2017-06-11T05:18:58.550Z,1028.93
2017-06-11T05:19:58.559Z,1028.85
2017-06-11T05:20:58.570Z,1028.86
2017-06-11T05:21:58.578Z,1028.9
2017-06-11T05:22:58.588Z,1028.92
2017-06-11T05:23:58.599Z,1028.92
2017-06-11T05:24:58.610Z,1028.77
2017-06-11T05:25:58.619Z,1028.7
2017-06-11T05:26:58.631Z,1028.61
2017-06-11T05:27:58.642Z,1028.59
2017-06-11T05:28:58.651Z,1028.6
2017-06-11T05:29:58.664Z,1028.56
2017-06-11T05:30:58.675Z,1028.54
2017-06-11T05:31:58.687Z,1028.44
2017-06-11T05:32:58.700Z,1028.4
2017-06-11T05:33:58.711Z,1028.36
2017-06-11T05:34:58.723Z,1028.27
2017-06-11T05:35:58.736Z,1028.24
2017-06-11T05:36:58.747Z,1028.18
2017-06-11T05:37:58.759Z,1028.12
2017-06-11T05:38:58.774Z,1028.23
2017-06-11T05:39:58.785Z,1028.34
2017-06-11T05:40:58.799Z,1028.31
2017-06-11T05:41:58.812Z,1028.28
2017-06-11T05:42:58.827Z,1028.22
2017-06-11T05:43:58.839Z,1028.1
2017-06-11T05:44:58.853Z,1027.91
2017-06-11T05:45:58.866Z,1027.83
2017-06-11T05:46:58.880Z,1027.8
2017-06-11T05:47:58.893Z,1027.79
2017-06-11T05:48:58.908Z,1027.8
2017-06-11T05:49:58.922Z,1027.82
2017-06-11T05:50:58.936Z,1027.75
2017-06-11T05:51:58.950Z,1027.71
2017-06-11T05:52:58.965Z,1027.69
2017-06-11T05:53:58.979Z,1027.69
2017-06-11T05:54:58.993Z,1027.63
2017-06-11T05:55:59.008Z,1027.61
2017-06-11T05:56:59.023Z,1027.58
2017-06-11T05:57:59.038Z,1027.49
2017-06-11T05:58:59.053Z,1027.43
2017-06-11T05:59:59.068Z,1027.37
2017-06-11T06:00:59.083Z,1027.33
2017-06-11T06:01:59.098Z,1027.21
2017-06-11T06:02:59.114Z,1027.17
2017-06-11T06:03:59.129Z,1027.13
2017-06-11T06:04:59.145Z,1027.17
2017-06-11T06:05:59.161Z,1027.23
2017-06-11T06:06:59.176Z,1027.21
2017-06-11T06:07:59.192Z,1027.14
2017-06-11T06:08:59.208Z,1027.08
2017-06-11T06:09:59.223Z,1026.96
2017-06-11T06:10:59.239Z,1026.92
2017-06-11T06:11:59.255Z,1026.91
2017-06-11T06:12:59.271Z,1026.86
2017-06-11T06:13:59.287Z,1026.8
2017-06-11T06:14:59.303Z,1026.67
2017-06-11T06:15:59.321Z,1026.6
2017-06-11T06:16:59.335Z,1026.63
2017-06-11T06:17:59.352Z,1026.66
2017-06-11T06:18:59.369Z,1026.66
2017-06-11T06:19:59.385Z,1026.6
2017-06-11T06:20:59.401Z,1026.52
2017-06-11T06:21:59.418Z,1026.48
2017-06-11T06:22:59.434Z,1026.44
2017-06-11T06:23:59.450Z,1026.37
2017-06-11T06:24:59.468Z,1026.36
2017-06-11T06:25:59.485Z,1026.31
2017-06-11T06:26:59.501Z,1026.28
2017-06-11T06:27:59.516Z,1026.29
2017-06-11T06:28:59.534Z,1026.25
2017-06-11T06:29:59.551Z,1026.28
2017-06-11T06:30:59.569Z,1026.19
2017-06-11T06:31:59.585Z,1026.21
2017-06-11T06:32:59.602Z,1026.2
2017-06-11T06:33:59.621Z,1026.18
2017-06-11T06:34:59.635Z,1026.21
2017-06-11T06:35:59.653Z,1026.18
2017-06-11T06:36:59.670Z,1026.16
2017-06-11T06:37:59.687Z,1026.04
2017-06-11T06:38:59.703Z,1025.99
2017-06-11T06:39:59.721Z,1025.86
2017-06-11T06:40:59.740Z,1025.82
2017-06-11T06:41:59.754Z,1025.81
2017-06-11T06:42:59.771Z,1025.87
2017-06-11T06:43:59.792Z,1025.9
2017-06-11T06:44:59.805Z,1025.89
2017-06-11T06:45:59.825Z,1025.87
2017-06-11T06:46:59.843Z,1025.83
2017-06-11T06:47:59.857Z,1025.91
2017-06-11T06:48:59.875Z,1025.9
2017-06-11T06:49:59.891Z,1026
2017-06-11T06:50:59.908Z,1026
2017-06-11T06:51:59.926Z,1025.97
2017-06-11T06:52:59.944Z,1025.93
2017-06-11T06:53:59.959Z,1025.91
2017-06-11T06:54:59.977Z,1025.9
2017-06-11T06:55:59.994Z,1025.88
2017-06-11T06:57:00.011Z,1025.98
2017-06-11T06:58:00.028Z,1026.1
2017-06-11T06:59:00.045Z,1026.15
2017-06-11T07:00:00.063Z,1026.11
2017-06-11T07:01:00.079Z,1026.09
2017-06-11T07:02:00.097Z,1026.03
2017-06-11T07:03:00.114Z,1025.94
2017-06-11T07:04:00.132Z,1025.91
2017-06-11T07:05:00.146Z,1025.84
2017-06-11T07:06:00.165Z,1025.8
2017-06-11T07:07:00.182Z,1025.79
2017-06-11T07:08:00.198Z,1025.73
2017-06-11T07:09:00.216Z,1025.75
2017-06-11T07:10:00.233Z,1025.73
2017-06-11T07:11:00.250Z,1025.77
2017-06-11T07:12:00.267Z,1025.79
2017-06-11T07:13:00.284Z,1025.85
2017-06-11T07:14:00.302Z,1025.8
2017-06-11T07:15:00.318Z,1025.83
2017-06-11T07:16:00.336Z,1025.85
2017-06-11T07:17:00.354Z,1025.84
2017-06-11T07:18:00.371Z,1025.85
2017-06-11T07:19:00.388Z,1025.88
2017-06-11T07:20:00.405Z,1025.85
2017-06-11T07:21:00.424Z,1026
2017-06-11T07:22:00.442Z,1025.97
2017-06-11T07:23:00.458Z,1026.04
2017-06-11T07:24:00.475Z,1026.03
2017-06-11T07:25:00.493Z,1026.04
2017-06-11T07:26:00.510Z,1026.01
2017-06-11T07:27:00.528Z,1025.95
2017-06-11T07:28:00.546Z,1025.93
2017-06-11T07:29:00.563Z,1025.91
2017-06-11T07:30:00.580Z,1025.88
2017-06-11T07:31:00.598Z,1025.91
2017-06-11T07:32:00.615Z,1025.97
2017-06-11T07:33:00.632Z,1026.08
2017-06-11T07:34:00.649Z,1026.09
2017-06-11T07:35:00.667Z,1026.09
2017-06-11T07:36:00.685Z,1026.12
2017-06-11T07:37:00.702Z,1026.15
2017-06-11T07:38:00.719Z,1026.2
2017-06-11T07:39:00.736Z,1026.16
2017-06-11T07:40:00.756Z,1026.12
2017-06-11T07:41:00.770Z,1026.1
2017-06-11T07:42:00.788Z,1026.15
2017-06-11T07:43:00.806Z,1026.18
2017-06-11T07:44:00.823Z,1026.12
2017-06-11T07:45:00.840Z,1026.02
2017-06-11T07:46:00.858Z,1025.99
2017-06-11T07:47:00.877Z,1025.93
2017-06-11T07:48:00.893Z,1025.86
2017-06-11T07:49:00.909Z,1025.85
2017-06-11T07:50:00.926Z,1025.78
2017-06-11T07:51:00.944Z,1025.91
2017-06-11T07:52:00.960Z,1025.95
2017-06-11T07:53:00.980Z,1025.89
2017-06-11T07:54:00.995Z,1025.94
2017-06-11T07:55:01.012Z,1025.94
2017-06-11T07:56:01.029Z,1025.88
2017-06-11T07:57:01.045Z,1025.95
2017-06-11T07:58:01.063Z,1025.99
2017-06-11T07:59:01.081Z,1026.04
2017-06-11T08:00:01.097Z,1025.91
2017-06-11T08:01:01.114Z,1025.79
2017-06-11T08:02:01.131Z,1025.68
2017-06-11T08:03:01.148Z,1025.75
2017-06-11T08:04:01.164Z,1025.78
2017-06-11T08:05:01.181Z,1025.83
2017-06-11T08:06:01.198Z,1025.8
2017-06-11T08:07:01.216Z,1025.76
2017-06-11T08:08:01.232Z,1025.65
2017-06-11T08:09:01.249Z,1025.49
2017-06-11T08:10:01.265Z,1025.42
2017-06-11T08:11:01.283Z,1025.34
2017-06-11T08:12:01.299Z,1025.29
2017-06-11T08:13:01.316Z,1025.28
2017-06-11T08:14:01.333Z,1025.22
2017-06-11T08:15:01.349Z,1025.15
2017-06-11T08:16:01.368Z,1025.29
2017-06-11T08:17:01.381Z,1025.4
2017-06-11T08:18:01.399Z,1025.5
2017-06-11T08:19:01.416Z,1025.42
2017-06-11T08:20:01.432Z,1025.46
2017-06-11T08:21:01.448Z,1025.42
2017-06-11T08:22:01.465Z,1025.33
2017-06-11T08:23:01.482Z,1025.25
2017-06-11T08:24:01.499Z,1025.35
2017-06-11T08:25:01.515Z,1025.32
2017-06-11T08:26:01.532Z,1025.31
2017-06-11T08:27:01.548Z,1025.28
2017-06-11T08:28:01.563Z,1025.25
2017-06-11T08:29:01.581Z,1025.36
2017-06-11T08:30:01.599Z,1025.34
2017-06-11T08:31:01.615Z,1025.33
2017-06-11T08:32:01.630Z,1025.36
2017-06-11T08:33:01.646Z,1025.3
2017-06-11T08:34:01.663Z,1025.31
2017-06-11T08:35:01.679Z,1025.42
2017-06-11T08:36:01.695Z,1025.55
2017-06-11T08:37:01.712Z,1025.65
2017-06-11T08:38:01.732Z,1025.54
2017-06-11T08:39:01.744Z,1025.52
2017-06-11T08:40:01.761Z,1025.5
2017-06-11T08:41:01.778Z,1025.37
2017-06-11T08:42:01.793Z,1025.25
2017-06-11T08:43:01.808Z,1025.13
2017-06-11T08:44:01.824Z,1024.94
2017-06-11T08:45:01.840Z,1024.79
2017-06-11T08:46:01.857Z,1024.71
2017-06-11T08:47:01.872Z,1024.65
2017-06-11T08:48:01.889Z,1024.78
2017-06-11T08:49:01.905Z,1024.84
2017-06-11T08:50:01.920Z,1025.12
2017-06-11T08:51:01.937Z,1025.27
2017-06-11T08:52:01.955Z,1025.45
2017-06-11T08:53:01.970Z,1025.65
2017-06-11T08:54:01.985Z,1026.03
2017-06-11T08:55:02.001Z,1026.52
2017-06-11T08:56:02.017Z,1027.18
2017-06-11T08:57:02.032Z,1027.93
2017-06-11T08:58:02.047Z,1028.58
2017-06-11T08:59:02.062Z,1029.01
2017-06-11T09:00:02.077Z,1029.38
2017-06-11T09:01:02.092Z,1029.75
2017-06-11T09:02:02.105Z,1029.92
2017-06-11T09:03:02.119Z,1030.36
2017-06-11T09:04:02.133Z,1030.73
2017-06-11T09:05:02.147Z,1030.97
2017-06-11T09:06:02.158Z,1031.18
2017-06-11T09:07:02.171Z,1031.41
2017-06-11T09:08:02.184Z,1031.58
2017-06-11T09:09:02.194Z,1031.77
2017-06-11T09:10:02.206Z,1031.86
2017-06-11T09:11:02.217Z,1032
2017-06-11T09:12:02.228Z,1032.08
2017-06-11T09:13:02.238Z,1032.17
2017-06-11T09:14:02.249Z,1032.23
2017-06-11T09:15:02.259Z,1032.3
2017-06-11T09:16:02.268Z,1032.37
2017-06-11T09:17:02.279Z,1032.39
2017-06-11T09:18:02.288Z,1032.43
2017-06-11T09:19:02.298Z,1032.5
2017-06-11T09:20:02.306Z,1032.51
2017-06-11T09:21:02.316Z,1032.7
2017-06-11T09:22:02.325Z,1032.71
2017-06-11T09:23:02.333Z,1032.81
2017-06-11T09:24:02.341Z,1032.8
2017-06-11T09:25:02.350Z,1032.86
2017-06-11T09:26:02.359Z,1032.84
2017-06-11T09:27:02.366Z,1032.81
2017-06-11T09:28:02.374Z,1032.85
2017-06-11T09:29:02.383Z,1032.87
2017-06-11T09:30:02.390Z,1032.83
2017-06-11T09:31:02.396Z,1032.87
2017-06-11T09:32:02.404Z,1032.87
2017-06-11T09:33:02.411Z,1032.92
2017-06-11T09:34:02.418Z,1032.84
2017-06-11T09:35:02.424Z,1032.83
2017-06-11T09:36:02.433Z,1032.82
2017-06-11T09:37:02.440Z,1032.78
2017-06-11T09:38:02.446Z,1032.79
2017-06-11T09:39:02.754Z,1032.87
2017-06-11T09:40:02.459Z,1032.85
2017-06-11T09:41:02.467Z,1032.9
2017-06-11T09:42:02.473Z,1032.85
2017-06-11T09:43:02.507Z,1032.82
2017-06-11T09:44:02.487Z,1032.92
2017-06-11T09:45:02.493Z,1032.9
2017-06-11T09:46:02.499Z,1032.93
2017-06-11T09:47:02.506Z,1032.98
2017-06-11T09:48:02.514Z,1032.94
2017-06-11T09:49:02.518Z,1032.94
2017-06-11T09:50:02.524Z,1032.88
2017-06-11T09:51:02.531Z,1032.85
2017-06-11T09:52:02.536Z,1032.87
2017-06-11T09:53:02.543Z,1032.83
2017-06-11T09:54:02.549Z,1032.81
2017-06-11T09:55:02.555Z,1032.75
2017-06-11T09:56:02.562Z,1032.78
2017-06-11T09:57:02.566Z,1032.79
2017-06-11T09:58:02.573Z,1032.79
2017-06-11T09:59:02.678Z,1032.84
2017-06-11T10:00:02.583Z,1032.87
2017-06-11T10:01:02.589Z,1032.82
2017-06-11T10:02:02.595Z,1032.81
2017-06-11T10:03:02.607Z,1032.78
2017-06-11T10:04:02.706Z,1032.71
2017-06-11T10:05:02.612Z,1032.72
2017-06-11T10:06:02.618Z,1032.71
2017-06-11T10:07:02.629Z,1032.67
2017-06-11T10:08:02.629Z,1032.61
2017-06-11T10:09:02.635Z,1032.64
2017-06-11T10:10:02.640Z,1032.65
2017-06-11T10:11:02.645Z,1032.71
2017-06-11T10:12:02.650Z,1032.7
2017-06-11T10:13:02.656Z,1032.7
2017-06-11T10:14:02.660Z,1032.62
2017-06-11T10:15:02.667Z,1032.59
2017-06-11T10:16:02.672Z,1032.6
2017-06-11T10:17:02.678Z,1032.51
2017-06-11T10:18:02.682Z,1032.51
2017-06-11T10:19:02.690Z,1032.56
2017-06-11T10:20:02.692Z,1032.52
2017-06-11T10:21:02.698Z,1032.5
2017-06-11T10:22:02.703Z,1032.48
2017-06-11T10:23:02.709Z,1032.43
2017-06-11T10:24:02.714Z,1032.4
2017-06-11T10:25:02.719Z,1032.44
2017-06-11T10:26:02.724Z,1032.44
2017-06-11T10:27:02.729Z,1032.45
2017-06-11T10:28:02.735Z,1032.47
2017-06-11T10:29:02.740Z,1032.37
2017-06-11T10:30:02.745Z,1032.37
2017-06-11T10:31:02.752Z,1032.36
2017-06-11T10:32:02.756Z,1032.4
2017-06-11T10:33:02.761Z,1032.37
2017-06-11T10:34:02.766Z,1032.35
2017-06-11T10:35:02.772Z,1032.36
2017-06-11T10:36:02.777Z,1032.39
2017-06-11T10:37:02.781Z,1032.37
2017-06-11T10:38:02.787Z,1032.36
2017-06-11T10:39:02.792Z,1032.3
2017-06-11T10:41:02.802Z,1032.29
2017-06-11T10:42:02.808Z,1032.26
2017-06-11T10:43:02.813Z,1032.28
2017-06-11T10:46:02.829Z,1032.15
2017-06-11T10:47:02.834Z,1032.1
2017-06-11T10:48:02.840Z,1032.06
2017-06-11T10:49:02.845Z,1032
2017-06-11T10:50:02.850Z,1031.9
2017-06-11T10:51:02.855Z,1031.9
2017-06-11T10:52:02.861Z,1031.82
2017-06-11T10:53:02.866Z,1031.83
2017-06-11T10:54:02.872Z,1031.79
2017-06-11T10:55:02.876Z,1031.82
2017-06-11T10:56:02.883Z,1031.76
2017-06-11T10:57:02.888Z,1031.7
2017-06-11T10:58:02.897Z,1031.69
2017-06-11T10:59:02.900Z,1031.68
2017-06-11T11:00:02.906Z,1031.65
2017-06-11T11:01:02.911Z,1031.61
2017-06-11T11:02:02.916Z,1031.53
2017-06-11T11:03:02.922Z,1031.51
2017-06-11T11:04:02.928Z,1031.49
2017-06-11T11:05:02.933Z,1031.47
2017-06-11T11:06:02.939Z,1031.43
2017-06-11T11:07:02.949Z,1031.31
2017-06-11T11:08:02.951Z,1031.32
2017-06-11T11:09:02.956Z,1031.28
2017-06-11T11:10:02.963Z,1031.15
2017-06-11T11:11:02.969Z,1031.21
2017-06-11T11:12:02.975Z,1031.21
2017-06-11T11:13:02.980Z,1031.19
2017-06-11T11:14:02.986Z,1031.16
2017-06-11T11:15:02.993Z,1031.16
2017-06-11T11:16:02.999Z,1031.13
2017-06-11T11:17:03.006Z,1031.12
2017-06-11T11:18:03.011Z,1031.1
2017-06-11T11:19:03.018Z,1030.99
2017-06-11T11:20:03.023Z,1031.04
2017-06-11T11:21:03.030Z,1031
2017-06-11T11:22:03.036Z,1030.98
2017-06-11T11:23:03.042Z,1030.94
2017-06-11T11:24:03.048Z,1030.99
2017-06-11T11:25:03.054Z,1030.97
2017-06-11T11:26:03.060Z,1031.05
2017-06-11T11:27:03.070Z,1031.02
2017-06-11T11:28:03.072Z,1030.98
2017-06-11T11:29:03.078Z,1031.04
2017-06-11T11:30:03.085Z,1030.96
2017-06-11T11:31:03.090Z,1030.98
2017-06-11T11:32:03.096Z,1031.03
2017-06-11T11:33:03.103Z,1031.02
2017-06-11T11:34:03.109Z,1031.01
2017-06-11T11:35:03.115Z,1030.97
2017-06-11T11:36:03.121Z,1030.96
2017-06-11T11:37:03.128Z,1030.96
2017-06-11T11:38:03.135Z,1030.96
2017-06-11T11:39:03.139Z,1030.99
2017-06-11T11:40:03.146Z,1030.94
2017-06-11T11:41:03.152Z,1030.92
2017-06-11T11:42:03.157Z,1030.92
2017-06-11T11:43:03.163Z,1030.86
2017-06-11T11:44:03.169Z,1030.83
2017-06-11T11:45:03.176Z,1030.84
2017-06-11T11:46:03.182Z,1030.78
2017-06-11T11:47:03.187Z,1030.86
2017-06-11T11:48:03.194Z,1030.88
2017-06-11T11:49:03.199Z,1030.83
2017-06-11T11:50:03.204Z,1030.76
2017-06-11T11:51:03.212Z,1030.7
2017-06-11T11:52:03.218Z,1030.69
2017-06-11T11:53:03.223Z,1030.64
2017-06-11T11:54:03.229Z,1030.62
2017-06-11T11:55:03.236Z,1030.58
2017-06-11T11:56:03.242Z,1030.63
2017-06-11T11:57:03.246Z,1030.64
2017-06-11T11:58:03.253Z,1030.57
2017-06-11T11:59:03.259Z,1030.58
2017-06-11T12:00:03.264Z,1030.52
2017-06-11T12:01:03.270Z,1030.53
2017-06-11T12:02:03.276Z,1030.47
2017-06-11T12:03:03.282Z,1030.47
2017-06-11T12:04:03.288Z,1030.4
2017-06-11T12:05:03.293Z,1030.41
2017-06-11T12:06:03.300Z,1030.39
2017-06-11T12:07:03.306Z,1030.44
2017-06-11T12:08:03.311Z,1030.42
2017-06-11T12:09:03.318Z,1030.46
2017-06-11T12:10:03.324Z,1030.44
2017-06-11T12:11:03.329Z,1030.49
2017-06-11T12:12:03.336Z,1030.44
2017-06-11T12:13:03.341Z,1030.41